createdAt,value
2018-12-06T00:01:15.488Z,100459.02
2018-12-06T00:03:42.264Z,100462.77
2018-12-06T00:06:09.023Z,100458.53
2018-12-06T00:08:35.800Z,100438.10
2018-12-06T00:11:02.565Z,100419.63
2018-12-06T00:13:29.348Z,100396.70
2018-12-06T00:15:56.105Z,100366.27
2018-12-06T00:18:22.888Z,100370.27
2018-12-06T00:20:49.658Z,100361.21
2018-12-06T00:23:16.442Z,100360.86
2018-12-06T00:25:43.312Z,100375.43
2018-12-06T00:28:10.082Z,100397.99
2018-12-06T00:30:39.425Z,100410.70
2018-12-06T00:33:06.200Z,100403.63
2018-12-06T00:35:33.004Z,100427.56
2018-12-06T00:37:59.781Z,100442.80
2018-12-06T00:40:26.561Z,100451.08
2018-12-06T00:42:53.321Z,100457.05
2018-12-06T00:45:20.109Z,100455.05
2018-12-06T00:47:46.872Z,100460.05
2018-12-06T00:50:13.660Z,100467.33
2018-12-06T00:52:41.529Z,100478.48
2018-12-06T00:55:08.309Z,100476.43
2018-12-06T00:57:35.068Z,100478.70
2018-12-06T01:00:02.148Z,100476.28
2018-12-06T01:02:28.898Z,100473.08
2018-12-06T01:04:55.676Z,100467.92
2018-12-06T01:07:22.440Z,100467.87
2018-12-06T01:09:49.260Z,100462.09
2018-12-06T01:12:16.133Z,100457.55
2018-12-06T01:14:42.905Z,100453.93
2018-12-06T01:17:09.693Z,100454.98
2018-12-06T01:19:36.500Z,100453.45
2018-12-06T01:22:03.416Z,100446.41
2018-12-06T01:24:30.261Z,100435.37
2018-12-06T01:26:57.029Z,100441.24
2018-12-06T01:29:23.808Z,100454.02
2018-12-06T01:31:50.569Z,100453.00
2018-12-06T01:34:17.345Z,100461.73
2018-12-06T01:36:44.112Z,100467.35
2018-12-06T01:39:10.889Z,100463.47
2018-12-06T01:41:37.652Z,100460.20
2018-12-06T01:44:04.412Z,100456.78
2018-12-06T01:46:31.204Z,100453.72
2018-12-06T01:48:57.964Z,100444.91
2018-12-06T01:51:24.740Z,100446.77
2018-12-06T01:53:51.509Z,100446.45
2018-12-06T01:56:18.316Z,100444.06
2018-12-06T01:58:45.096Z,100449.50
2018-12-06T02:01:11.889Z,100449.59
2018-12-06T02:03:38.648Z,100454.42
2018-12-06T02:06:05.435Z,100462.30
2018-12-06T02:08:32.251Z,100462.66
2018-12-06T02:10:59.116Z,100458.52
2018-12-06T02:13:25.889Z,100451.81
2018-12-06T02:15:52.663Z,100449.20
2018-12-06T02:18:19.428Z,100427.67
2018-12-06T02:20:46.221Z,100408.30
2018-12-06T02:23:13.012Z,100426.67
2018-12-06T02:25:39.800Z,100450.94
2018-12-06T02:28:06.561Z,100484.13
2018-12-06T02:30:33.351Z,100484.95
2018-12-06T02:33:00.161Z,100481.70
2018-12-06T02:35:26.938Z,100482.60
2018-12-06T02:37:53.690Z,100480.45
2018-12-06T02:40:20.473Z,100464.97
2018-12-06T02:42:47.243Z,100462.55
2018-12-06T02:45:14.040Z,100449.86
2018-12-06T02:47:40.807Z,100445.25
2018-12-06T02:50:07.595Z,100451.03
2018-12-06T02:52:34.349Z,100467.47
2018-12-06T02:55:01.162Z,100468.55
2018-12-06T02:57:27.913Z,100469.02
2018-12-06T02:59:54.680Z,100466.08
2018-12-06T03:02:21.459Z,100467.37
2018-12-06T03:04:48.217Z,100471.84
2018-12-06T03:07:15.094Z,100462.44
2018-12-06T03:09:41.849Z,100472.53
2018-12-06T03:12:08.634Z,100469.94
2018-12-06T03:14:35.404Z,100461.72
2018-12-06T03:17:02.189Z,100455.85
2018-12-06T03:19:28.943Z,100445.48
2018-12-06T03:21:55.735Z,100450.67
2018-12-06T03:24:22.489Z,100447.93
2018-12-06T03:26:49.345Z,100452.17
2018-12-06T03:29:16.098Z,100448.05
2018-12-06T03:31:42.906Z,100440.16
2018-12-06T03:34:09.670Z,100438.73
2018-12-06T03:36:36.449Z,100434.34
2018-12-06T03:39:06.160Z,100438.53
2018-12-06T03:41:32.937Z,100452.34
2018-12-06T03:43:59.693Z,100455.43
2018-12-06T03:46:26.477Z,100449.44
2018-12-06T03:48:53.367Z,100443.47
2018-12-06T03:51:20.137Z,100440.86
2018-12-06T03:53:46.897Z,100435.19
2018-12-06T03:56:13.726Z,100431.88
2018-12-06T03:58:40.481Z,100434.56
2018-12-06T04:01:07.261Z,100433.17
2018-12-06T04:03:34.016Z,100423.32
2018-12-06T04:06:00.797Z,100427.63
2018-12-06T04:08:28.140Z,100435.05
2018-12-06T04:10:54.922Z,100434.56
2018-12-06T04:13:21.686Z,100432.73
2018-12-06T04:15:48.451Z,100435.79
2018-12-06T04:18:15.253Z,100431.45
2018-12-06T04:20:42.002Z,100428.38
2018-12-06T04:23:08.783Z,100434.56
2018-12-06T04:25:35.540Z,100435.19
2018-12-06T04:28:02.321Z,100430.51
2018-12-06T04:30:29.081Z,100425.34
2018-12-06T04:32:55.862Z,100425.59
2018-12-06T04:35:22.626Z,100424.30
2018-12-06T04:37:49.404Z,100424.08
2018-12-06T04:40:16.165Z,100421.62
2018-12-06T04:42:42.940Z,100425.97
2018-12-06T04:45:10.582Z,100423.50
2018-12-06T04:47:37.669Z,100427.92
2018-12-06T04:50:04.454Z,100432.50
2018-12-06T04:52:31.243Z,100427.37
2018-12-06T04:54:58.136Z,100430.40
2018-12-06T04:57:24.912Z,100431.44
2018-12-06T04:59:51.673Z,100431.80
2018-12-06T05:02:18.470Z,100433.32
2018-12-06T05:04:45.216Z,100430.73
2018-12-06T05:07:11.994Z,100428.28
2018-12-06T05:09:38.744Z,100428.18
2018-12-06T05:12:06.017Z,100425.36
2018-12-06T05:14:32.761Z,100427.14
2018-12-06T05:16:59.608Z,100440.06
2018-12-06T05:19:26.401Z,100439.84
2018-12-06T05:21:53.256Z,100445.61
2018-12-06T05:24:20.112Z,100438.77
2018-12-06T05:26:46.921Z,100433.49
2018-12-06T05:29:13.700Z,100439.48
2018-12-06T05:31:40.476Z,100445.59
2018-12-06T05:34:07.245Z,100446.80
2018-12-06T05:36:34.000Z,100455.83
2018-12-06T05:39:00.785Z,100462.53
2018-12-06T05:41:27.544Z,100458.54
2018-12-06T05:43:54.320Z,100467.59
2018-12-06T05:46:21.083Z,100463.59
2018-12-06T05:48:47.852Z,100468.42
2018-12-06T05:51:14.621Z,100477.36
2018-12-06T05:53:41.390Z,100469.00
2018-12-06T05:56:08.169Z,100476.64
2018-12-06T05:58:34.968Z,100482.98
2018-12-06T06:01:01.740Z,100465.35
2018-12-06T06:03:28.517Z,100472.98
2018-12-06T06:05:55.303Z,100475.48
2018-12-06T06:08:22.077Z,100475.48
2018-12-06T06:10:48.845Z,100479.09
2018-12-06T06:13:15.630Z,100478.38
2018-12-06T06:15:42.390Z,100477.54
2018-12-06T06:18:09.164Z,100478.38
2018-12-06T06:20:35.924Z,100480.48
2018-12-06T06:23:02.701Z,100487.45
2018-12-06T06:25:29.472Z,100488.94
2018-12-06T06:27:56.265Z,100490.00
2018-12-06T06:30:23.029Z,100498.84
2018-12-06T06:32:49.813Z,100498.34
2018-12-06T06:35:16.572Z,100500.78
2018-12-06T06:37:44.441Z,100501.73
2018-12-06T06:40:11.210Z,100499.58
2018-12-06T06:42:38.004Z,100507.76
2018-12-06T06:45:04.876Z,100512.71
2018-12-06T06:47:31.649Z,100517.89
2018-12-06T06:49:58.408Z,100529.54
2018-12-06T06:52:25.177Z,100534.59
2018-12-06T06:54:51.980Z,100535.30
2018-12-06T06:57:18.763Z,100538.24
2018-12-06T06:59:45.546Z,100541.41
2018-12-06T07:02:12.316Z,100546.95
2018-12-06T07:04:39.101Z,100551.17
2018-12-06T07:07:05.865Z,100554.58
2018-12-06T07:09:32.759Z,100568.25
2018-12-06T07:11:59.464Z,100562.02
2018-12-06T07:14:26.257Z,100564.33
2018-12-06T07:16:53.034Z,100567.88
2018-12-06T07:19:19.804Z,100566.58
2018-12-06T07:21:46.573Z,100571.36
2018-12-06T07:24:13.349Z,100574.99
2018-12-06T07:26:40.186Z,100583.66
2018-12-06T07:29:06.945Z,100593.67
2018-12-06T07:31:33.711Z,100591.04
2018-12-06T07:34:00.492Z,100585.61
2018-12-06T07:36:27.253Z,100586.19
2018-12-06T07:38:54.040Z,100595.67
2018-12-06T07:41:20.792Z,100603.71
2018-12-06T07:43:47.593Z,100611.76
2018-12-06T07:46:14.332Z,100610.20
2018-12-06T07:48:41.121Z,100605.05
2018-12-06T07:51:07.880Z,100606.53
2018-12-06T07:53:34.656Z,100603.41
2018-12-06T07:56:01.482Z,100614.34
2018-12-06T07:58:28.306Z,100614.78
2018-12-06T08:00:55.084Z,100617.67
2018-12-06T08:03:21.861Z,100620.91
2018-12-06T08:05:48.624Z,100626.15
2018-12-06T08:08:15.409Z,100623.55
2018-12-06T08:10:42.229Z,100632.47
2018-12-06T08:13:09.025Z,100636.48
2018-12-06T08:15:35.855Z,100634.70
2018-12-06T08:18:02.568Z,100639.31
2018-12-06T08:20:29.354Z,100647.20
2018-12-06T08:22:56.140Z,100644.09
2018-12-06T08:25:22.917Z,100651.50
2018-12-06T08:27:49.692Z,100661.18
2018-12-06T08:30:16.468Z,100668.66
2018-12-06T08:32:43.280Z,100665.06
2018-12-06T08:35:10.064Z,100671.73
2018-12-06T08:37:36.827Z,100675.59
2018-12-06T08:40:04.528Z,100671.44
2018-12-06T08:42:31.281Z,100671.39
2018-12-06T08:44:58.145Z,100677.70
2018-12-06T08:47:24.904Z,100677.87
2018-12-06T08:49:51.684Z,100672.99
2018-12-06T08:52:18.446Z,100670.64
2018-12-06T08:54:45.238Z,100671.91
2018-12-06T08:57:12.121Z,100684.19
2018-12-06T08:59:38.911Z,100695.49
2018-12-06T09:02:05.681Z,100699.67
2018-12-06T09:04:32.546Z,100700.97
2018-12-06T09:06:59.293Z,100690.86
2018-12-06T09:09:26.144Z,100689.92
2018-12-06T09:11:52.910Z,100682.82
2018-12-06T09:14:19.673Z,100675.42
2018-12-06T09:16:46.434Z,100677.23
2018-12-06T09:19:14.735Z,100684.03
2018-12-06T09:21:39.948Z,100686.51
2018-12-06T09:24:06.728Z,100690.52
2018-12-06T09:26:33.480Z,100695.69
2018-12-06T09:29:00.245Z,100698.52
2018-12-06T09:31:27.009Z,100694.56
2018-12-06T09:34:01.668Z,100695.47
2018-12-06T09:36:28.437Z,100702.88
2018-12-06T09:38:55.189Z,100696.27
2018-12-06T09:41:21.980Z,100706.65
2018-12-06T09:43:48.740Z,100696.88
2018-12-06T09:46:15.522Z,100693.50
2018-12-06T09:48:42.301Z,100692.59
2018-12-06T09:51:09.082Z,100699.71
2018-12-06T09:53:35.833Z,100701.13
2018-12-06T09:56:02.601Z,100702.94
2018-12-06T09:58:29.362Z,100701.14
2018-12-06T10:00:56.141Z,100710.70
2018-12-06T10:03:22.917Z,100715.55
2018-12-06T10:05:49.705Z,100715.52
2018-12-06T10:08:16.457Z,100717.98
2018-12-06T10:10:43.224Z,100719.63
2018-12-06T10:13:09.982Z,100717.27
2018-12-06T10:15:36.757Z,100726.18
2018-12-06T10:18:03.525Z,100717.53
2018-12-06T10:20:30.294Z,100715.54
2018-12-06T10:22:57.049Z,100716.09
2018-12-06T10:25:23.826Z,100720.19
2018-12-06T10:27:50.601Z,100712.36
2018-12-06T10:30:17.385Z,100708.05
2018-12-06T10:32:44.219Z,100703.15
2018-12-06T10:35:10.985Z,100704.63
2018-12-06T10:37:37.756Z,100709.58
2018-12-06T10:40:04.553Z,100705.24
2018-12-06T10:42:31.313Z,100702.30
2018-12-06T10:44:58.105Z,100706.20
2018-12-06T10:47:24.877Z,100715.39
2018-12-06T10:49:51.661Z,100716.55
2018-12-06T10:52:18.429Z,100717.72
2018-12-06T10:54:45.209Z,100726.17
2018-12-06T10:57:11.990Z,100732.89
2018-12-06T10:59:38.818Z,100731.24
2018-12-06T11:02:11.196Z,100738.52
2018-12-06T11:04:37.980Z,100730.66
2018-12-06T11:07:05.906Z,100722.27
2018-12-06T11:09:32.996Z,100717.67
2018-12-06T11:11:59.743Z,100716.41
2018-12-06T11:14:26.494Z,100714.90
2018-12-06T11:16:53.276Z,100720.50
2018-12-06T11:19:20.041Z,100713.51
2018-12-06T11:21:46.817Z,100707.59
2018-12-06T11:24:13.596Z,100711.78
2018-12-06T11:26:40.372Z,100700.06
2018-12-06T11:29:07.144Z,100697.19
2018-12-06T11:31:33.922Z,100688.16
2018-12-06T11:34:00.672Z,100681.29
2018-12-06T11:36:27.425Z,100682.31
2018-12-06T11:38:54.208Z,100689.38
2018-12-06T11:41:20.965Z,100683.58
2018-12-06T11:43:47.753Z,100676.42
2018-12-06T11:46:14.504Z,100669.56
2018-12-06T11:48:41.292Z,100678.14
2018-12-06T11:51:08.061Z,100679.97
2018-12-06T11:53:34.865Z,100688.79
2018-12-06T11:56:01.637Z,100685.70
2018-12-06T11:58:28.408Z,100688.98
2018-12-06T12:00:55.172Z,100690.85
2018-12-06T12:03:21.988Z,100692.66
2018-12-06T12:05:48.757Z,100693.31
2018-12-06T12:08:15.538Z,100695.25
2018-12-06T12:10:42.284Z,100693.94
2018-12-06T12:13:09.068Z,100690.40
2018-12-06T12:15:35.884Z,100681.91
2018-12-06T12:18:02.692Z,100679.59
2018-12-06T12:20:29.447Z,100675.27
2018-12-06T12:22:56.324Z,100675.23
2018-12-06T12:25:23.088Z,100678.41
2018-12-06T12:27:49.873Z,100676.05
2018-12-06T12:30:16.638Z,100680.59
2018-12-06T12:32:43.417Z,100676.20
2018-12-06T12:35:10.181Z,100689.05
2018-12-06T12:37:36.965Z,100685.17
2018-12-06T12:40:05.624Z,100687.14
2018-12-06T12:42:32.433Z,100689.30
2018-12-06T12:44:59.192Z,100684.86
2018-12-06T12:47:26.080Z,100678.98
2018-12-06T12:49:52.864Z,100679.28
2018-12-06T12:52:19.650Z,100683.25
2018-12-06T12:54:46.428Z,100681.73
2018-12-06T12:57:13.249Z,100669.92
2018-12-06T12:59:40.005Z,100660.17
2018-12-06T13:02:06.789Z,100664.13
2018-12-06T13:04:33.547Z,100669.55
2018-12-06T13:07:17.626Z,100677.30
2018-12-06T13:09:44.434Z,100681.75
2018-12-06T13:12:11.305Z,100685.73
2018-12-06T13:14:38.071Z,100680.29
2018-12-06T13:17:05.072Z,100684.58
2018-12-06T13:19:31.936Z,100684.20
2018-12-06T13:21:58.729Z,100683.88
2018-12-06T13:24:25.545Z,100683.02
2018-12-06T13:26:52.330Z,100686.15
2018-12-06T13:29:19.094Z,100688.56
2018-12-06T13:31:45.880Z,100684.39
2018-12-06T13:34:12.644Z,100675.72
2018-12-06T13:36:39.428Z,100674.89
2018-12-06T13:39:06.214Z,100681.08
2018-12-06T13:41:33.005Z,100686.95
2018-12-06T13:43:59.789Z,100693.95
2018-12-06T13:46:26.554Z,100684.55
2018-12-06T13:48:53.329Z,100683.16
2018-12-06T13:51:20.089Z,100691.10
2018-12-06T13:53:46.870Z,100678.52
2018-12-06T13:56:13.627Z,100685.03
2018-12-06T13:58:40.405Z,100686.00
2018-12-06T14:01:07.461Z,100691.41
2018-12-06T14:03:33.990Z,100687.53
2018-12-06T14:06:00.751Z,100690.06
2018-12-06T14:08:27.531Z,100689.58
2018-12-06T14:10:54.290Z,100703.92
2018-12-06T14:13:23.686Z,100711.91
2018-12-06T14:15:47.857Z,100718.31
2018-12-06T14:18:14.644Z,100709.81
2018-12-06T14:20:41.401Z,100707.05
2018-12-06T14:23:08.196Z,100700.35
2018-12-06T14:25:34.978Z,100700.64
2018-12-06T14:28:01.756Z,100699.34
2018-12-06T14:30:28.521Z,100699.75
2018-12-06T14:32:55.369Z,100698.40
2018-12-06T14:35:22.121Z,100697.25
2018-12-06T14:37:48.921Z,100707.66
2018-12-06T14:40:15.687Z,100700.23
2018-12-06T14:42:42.501Z,100706.38
2018-12-06T14:45:09.270Z,100698.52
2018-12-06T14:47:36.049Z,100703.89
2018-12-06T14:50:03.716Z,100706.16
2018-12-06T14:52:30.493Z,100710.18
2018-12-06T14:54:57.255Z,100713.01
2018-12-06T14:57:24.077Z,100718.78
2018-12-06T14:59:50.833Z,100718.73
2018-12-06T15:02:17.613Z,100718.25
2018-12-06T15:04:44.397Z,100721.92
2018-12-06T15:07:11.153Z,100720.20
2018-12-06T15:09:37.980Z,100734.19
2018-12-06T15:12:04.720Z,100739.05
2018-12-06T15:14:31.501Z,100734.80
2018-12-06T15:16:58.309Z,100735.47
2018-12-06T15:19:25.192Z,100730.34
2018-12-06T15:21:51.899Z,100734.88
2018-12-06T15:24:18.685Z,100728.03
2018-12-06T15:26:45.477Z,100730.91
2018-12-06T15:29:12.257Z,100737.33
2018-12-06T15:31:39.056Z,100740.47
2018-12-06T15:34:05.854Z,100742.08
2018-12-06T15:36:32.612Z,100729.70
2018-12-06T15:38:59.392Z,100733.29
2018-12-06T15:41:26.161Z,100733.31
2018-12-06T15:43:52.937Z,100730.94
2018-12-06T15:46:19.796Z,100736.19
2018-12-06T15:48:46.487Z,100730.20
2018-12-06T15:51:13.256Z,100732.58
2018-12-06T15:53:40.037Z,100729.06
2018-12-06T15:56:06.801Z,100730.70
2018-12-06T15:58:33.586Z,100728.87
2018-12-06T16:01:00.349Z,100730.38
2018-12-06T16:03:27.157Z,100729.98
2018-12-06T16:05:54.030Z,100727.04
2018-12-06T16:08:20.828Z,100730.16
2018-12-06T16:10:47.592Z,100726.66
2018-12-06T16:13:14.561Z,100731.28
2018-12-06T16:15:41.353Z,100729.88
2018-12-06T16:18:08.111Z,100726.66
2018-12-06T16:20:34.897Z,100732.55
2018-12-06T16:23:01.673Z,100719.13
2018-12-06T16:25:28.452Z,100724.27
2018-12-06T16:27:55.221Z,100727.11
2018-12-06T16:30:21.996Z,100725.37
2018-12-06T16:32:48.761Z,100733.00
2018-12-06T16:35:15.549Z,100728.22
2018-12-06T16:37:42.365Z,100728.31
2018-12-06T16:40:09.177Z,100726.73
2018-12-06T16:42:35.957Z,100731.16
2018-12-06T16:45:02.786Z,100729.65
2018-12-06T16:47:29.534Z,100735.99
2018-12-06T16:49:56.313Z,100742.38
2018-12-06T16:52:23.089Z,100751.95
2018-12-06T16:54:49.898Z,100744.27
2018-12-06T16:57:16.656Z,100747.13
2018-12-06T16:59:43.430Z,100748.27
2018-12-06T17:02:10.193Z,100748.66
2018-12-06T17:04:36.976Z,100751.89
2018-12-06T17:07:03.738Z,100755.52
2018-12-06T17:09:30.521Z,100753.62
2018-12-06T17:11:57.354Z,100754.06
2018-12-06T17:14:24.136Z,100757.58
2018-12-06T17:16:50.906Z,100767.30
2018-12-06T17:19:17.686Z,100768.16
2018-12-06T17:21:44.456Z,100767.52
2018-12-06T17:24:11.238Z,100767.23
2018-12-06T17:26:38.000Z,100762.31
2018-12-06T17:29:04.850Z,100764.23
2018-12-06T17:31:31.604Z,100760.57
2018-12-06T17:33:58.372Z,100763.61
2018-12-06T17:36:25.153Z,100758.41
2018-12-06T17:38:51.986Z,100754.06
2018-12-06T17:41:18.769Z,100759.95
2018-12-06T17:43:45.528Z,100756.62
2018-12-06T17:46:12.309Z,100763.90
2018-12-06T17:48:39.075Z,100768.63
2018-12-06T17:51:05.849Z,100770.56
2018-12-06T17:53:32.617Z,100774.09
2018-12-06T17:55:59.394Z,100774.72
2018-12-06T17:58:26.157Z,100766.77
2018-12-06T18:00:52.941Z,100759.42
2018-12-06T18:03:19.728Z,100752.42
2018-12-06T18:05:46.512Z,100753.50
2018-12-06T18:08:13.273Z,100758.46
2018-12-06T18:10:40.053Z,100762.12
2018-12-06T18:13:06.817Z,100752.20
2018-12-06T18:15:33.601Z,100751.52
2018-12-06T18:18:00.364Z,100748.72
2018-12-06T18:20:27.149Z,100749.25
2018-12-06T18:22:53.925Z,100751.33
2018-12-06T18:25:20.701Z,100752.84
2018-12-06T18:27:47.554Z,100759.17
2018-12-06T18:30:14.333Z,100755.45
2018-12-06T18:32:41.094Z,100762.84
2018-12-06T18:35:08.149Z,100761.06
2018-12-06T18:37:34.913Z,100752.00
2018-12-06T18:40:01.757Z,100750.65
2018-12-06T18:42:28.529Z,100751.12
2018-12-06T18:44:55.305Z,100754.75
2018-12-06T18:47:22.149Z,100754.75
2018-12-06T18:52:17.369Z,100750.56
2018-12-06T18:54:44.128Z,100749.56
2018-12-06T18:57:10.906Z,100746.73
2018-12-06T18:59:37.673Z,100746.92
2018-12-06T19:02:04.552Z,100743.20
2018-12-06T19:04:31.333Z,100741.92
2018-12-06T19:06:58.109Z,100737.41
2018-12-06T19:09:24.902Z,100735.48
2018-12-06T19:11:51.687Z,100731.77
2018-12-06T19:14:21.810Z,100736.64
2018-12-06T19:16:45.222Z,100740.39
2018-12-06T19:19:12.026Z,100739.67
2018-12-06T19:21:38.801Z,100738.94
2018-12-06T19:24:05.564Z,100740.34
2018-12-06T19:26:32.336Z,100739.82
2018-12-06T19:28:59.175Z,100733.03
2018-12-06T19:31:26.114Z,100724.03
2018-12-06T19:33:52.864Z,100726.84
2018-12-06T19:36:19.750Z,100728.37
2018-12-06T19:38:46.473Z,100725.25
2018-12-06T19:41:13.244Z,100726.69
2018-12-06T19:43:40.004Z,100722.60
2018-12-06T19:46:06.775Z,100723.22
2018-12-06T19:48:33.540Z,100723.98
2018-12-06T19:51:00.316Z,100715.37
2018-12-06T19:53:27.080Z,100722.66
2018-12-06T19:55:53.856Z,100729.68
2018-12-06T19:58:20.681Z,100721.23
2018-12-06T20:00:47.460Z,100724.95
2018-12-06T20:03:14.292Z,100719.11
2018-12-06T20:05:41.069Z,100718.47
2018-12-06T20:08:07.835Z,100717.30
2018-12-06T20:10:34.621Z,100717.50
2018-12-06T20:13:01.381Z,100720.27
2018-12-06T20:15:28.138Z,100709.42
2018-12-06T20:17:54.929Z,100711.55
2018-12-06T20:20:23.784Z,100715.60
2018-12-06T20:22:48.461Z,100710.42
2018-12-06T20:25:15.221Z,100704.20
2018-12-06T20:27:41.997Z,100707.05
2018-12-06T20:30:08.757Z,100711.05
2018-12-06T20:32:35.542Z,100712.41
2018-12-06T20:35:02.322Z,100704.95
2018-12-06T20:37:29.141Z,100702.97
2018-12-06T20:39:55.905Z,100710.88
2018-12-06T20:42:22.675Z,100698.05
2018-12-06T20:44:49.461Z,100709.09
2018-12-06T20:47:17.425Z,100704.56
2018-12-06T20:49:44.188Z,100701.96
2018-12-06T20:52:10.958Z,100695.37
2018-12-06T20:54:37.720Z,100696.96
2018-12-06T20:57:04.492Z,100696.88
2018-12-06T20:59:31.268Z,100700.03
2018-12-06T21:01:58.064Z,100700.56
2018-12-06T21:04:24.860Z,100694.19
2018-12-06T21:06:51.642Z,100696.17
2018-12-06T21:09:18.769Z,100699.23
2018-12-06T21:11:45.181Z,100695.66
2018-12-06T21:14:11.940Z,100698.34
2018-12-06T21:16:38.716Z,100692.64
2018-12-06T21:19:05.471Z,100703.17
2018-12-06T21:21:32.397Z,100704.10
2018-12-06T21:23:59.165Z,100701.20
2018-12-06T21:26:26.443Z,100709.10
2018-12-06T21:28:52.688Z,100707.95
2018-12-06T21:31:19.477Z,100702.05
2018-12-06T21:33:46.221Z,100709.23
2018-12-06T21:36:12.981Z,100701.47
2018-12-06T21:38:39.758Z,100696.50
2018-12-06T21:41:06.523Z,100697.34
2018-12-06T21:43:33.296Z,100705.23
2018-12-06T21:46:00.057Z,100695.59
2018-12-06T21:48:26.841Z,100691.58
2018-12-06T21:50:53.596Z,100688.97
2018-12-06T21:53:20.405Z,100692.30
2018-12-06T21:55:47.159Z,100688.23
2018-12-06T21:58:13.945Z,100684.50
2018-12-06T22:00:40.705Z,100687.77
2018-12-06T22:03:07.485Z,100685.64
2018-12-06T22:05:34.240Z,100683.53
2018-12-06T22:08:01.129Z,100688.25
2018-12-06T22:10:27.889Z,100687.28
2018-12-06T22:12:54.673Z,100692.28
2018-12-06T22:15:21.484Z,100690.39
2018-12-06T22:17:48.272Z,100691.37
2018-12-06T22:20:15.012Z,100689.21
2018-12-06T22:22:41.790Z,100691.98
2018-12-06T22:25:08.664Z,100685.36
2018-12-06T22:27:35.436Z,100680.11
2018-12-06T22:30:02.204Z,100679.91
2018-12-06T22:32:28.980Z,100682.19
2018-12-06T22:34:55.732Z,100677.95
2018-12-06T22:37:22.562Z,100666.96
2018-12-06T22:39:49.327Z,100671.88
2018-12-06T22:42:16.104Z,100662.16
2018-12-06T22:44:42.857Z,100665.47
2018-12-06T22:47:09.703Z,100665.52
2018-12-06T22:49:36.388Z,100664.94
2018-12-06T22:52:03.164Z,100665.13
2018-12-06T22:54:29.929Z,100666.48
2018-12-06T22:56:56.712Z,100667.22
2018-12-06T22:59:23.468Z,100662.23
2018-12-06T23:01:50.253Z,100671.13
2018-12-06T23:04:17.040Z,100663.94
2018-12-06T23:06:43.820Z,100659.91
2018-12-06T23:09:10.577Z,100657.53
2018-12-06T23:11:37.600Z,100662.41
2018-12-06T23:14:04.457Z,100651.76
2018-12-06T23:16:31.224Z,100656.78
2018-12-06T23:18:58.089Z,100644.56
2018-12-06T23:21:24.888Z,100643.30
2018-12-06T23:23:51.661Z,100642.04
2018-12-06T23:26:18.460Z,100639.69
2018-12-06T23:28:45.221Z,100639.72
2018-12-06T23:31:11.985Z,100646.35
2018-12-06T23:33:38.800Z,100649.48
2018-12-06T23:36:05.576Z,100651.72
2018-12-06T23:38:32.336Z,100657.78
2018-12-06T23:40:59.116Z,100655.48
2018-12-06T23:43:25.872Z,100657.06
2018-12-06T23:45:52.656Z,100647.00
2018-12-06T23:48:19.421Z,100651.10
2018-12-06T23:50:46.202Z,100646.33
2018-12-06T23:53:12.953Z,100639.28
2018-12-06T23:55:39.975Z,100630.84
2018-12-06T23:58:06.732Z,100633.73
